createdAt,value
2018-08-06T00:00:52.182Z,9.30
2018-08-06T00:03:20.764Z,10.43
2018-08-06T00:05:49.260Z,9.77
2018-08-06T00:08:17.782Z,8.47
2018-08-06T00:10:46.279Z,9.07
2018-08-06T00:13:14.803Z,8.60
2018-08-06T00:15:43.271Z,8.13
2018-08-06T00:18:11.751Z,9.60
2018-08-06T00:20:40.271Z,9.80
2018-08-06T00:23:08.759Z,8.00
2018-08-06T00:25:37.255Z,6.80
2018-08-06T00:28:05.959Z,7.70
2018-08-06T00:30:34.450Z,6.93
2018-08-06T00:33:02.959Z,7.00
2018-08-06T00:35:31.421Z,6.50
2018-08-06T00:37:59.957Z,6.80
2018-08-06T00:40:28.263Z,7.70
2018-08-06T00:43:03.067Z,8.47
2018-08-06T00:45:31.686Z,7.60
2018-08-06T00:48:00.183Z,6.93
2018-08-06T00:50:28.712Z,8.07
2018-08-06T00:52:57.353Z,8.57
2018-08-06T00:55:25.852Z,8.20
2018-08-06T00:57:54.350Z,10.50
2018-08-06T01:00:22.997Z,13.07
2018-08-06T01:02:51.484Z,11.93
2018-08-06T01:05:20.181Z,10.33
2018-08-06T01:07:48.763Z,8.73
2018-08-06T01:10:19.361Z,9.00
2018-08-06T01:12:47.885Z,8.87
2018-08-06T01:15:18.505Z,8.50
2018-08-06T01:17:46.989Z,9.60
2018-08-06T01:20:16.009Z,8.13
2018-08-06T01:22:45.405Z,9.37
2018-08-06T01:25:14.479Z,9.83
2018-08-06T01:27:42.753Z,10.60
2018-08-06T01:30:13.039Z,10.83
2018-08-06T01:32:41.605Z,10.67
2018-08-06T01:35:10.740Z,9.30
2018-08-06T01:37:39.423Z,10.07
2018-08-06T01:40:10.031Z,9.00
2018-08-06T01:42:38.619Z,9.10
2018-08-06T01:45:07.737Z,10.03
2018-08-06T01:47:37.195Z,9.43
2018-08-06T01:50:06.095Z,10.53
2018-08-06T01:52:34.643Z,9.43
2018-08-06T01:55:03.154Z,10.80
2018-08-06T01:57:31.779Z,11.50
2018-08-06T02:00:00.319Z,10.10
2018-08-06T02:02:28.937Z,11.00
2018-08-06T02:04:57.119Z,10.37
2018-08-06T02:07:25.422Z,10.50
2018-08-06T02:09:54.034Z,10.80
2018-08-06T02:12:22.591Z,10.37
2018-08-06T02:14:51.076Z,10.20
2018-08-06T02:17:19.528Z,9.77
2018-08-06T02:19:48.426Z,9.47
2018-08-06T02:22:17.049Z,9.93
2018-08-06T02:24:45.608Z,9.67
2018-08-06T02:27:14.086Z,10.00
2018-08-06T02:29:42.927Z,9.03
2018-08-06T02:32:11.476Z,9.47
2018-08-06T02:34:39.990Z,7.90
2018-08-06T02:37:08.776Z,8.40
2018-08-06T02:39:37.366Z,9.00
2018-08-06T02:42:06.003Z,9.13
2018-08-06T02:44:34.512Z,8.70
2018-08-06T02:47:02.998Z,8.80
2018-08-06T02:49:31.719Z,9.13
2018-08-06T02:52:00.269Z,8.70
2018-08-06T02:54:28.997Z,7.87
2018-08-06T02:56:57.541Z,9.87
2018-08-06T02:59:26.091Z,8.43
2018-08-06T03:01:54.742Z,9.77
2018-08-06T03:04:23.237Z,8.83
2018-08-06T03:06:51.831Z,9.73
2018-08-06T03:09:20.382Z,10.67
2018-08-06T03:11:48.894Z,9.50
2018-08-06T03:14:17.462Z,10.10
2018-08-06T03:16:46.003Z,9.93
2018-08-06T03:19:14.472Z,9.90
2018-08-06T03:21:43.002Z,9.50
2018-08-06T03:24:11.668Z,9.93
2018-08-06T03:26:40.177Z,9.17
2018-08-06T03:29:08.740Z,10.00
2018-08-06T03:31:37.292Z,9.07
2018-08-06T03:34:06.054Z,9.70
2018-08-06T03:36:34.522Z,10.90
2018-08-06T03:39:03.164Z,9.83
2018-08-06T03:41:31.654Z,10.73
2018-08-06T03:44:00.146Z,11.30
2018-08-06T03:46:28.834Z,12.10
2018-08-06T03:48:57.319Z,10.20
2018-08-06T03:51:25.882Z,10.20
2018-08-06T03:53:54.434Z,11.63
2018-08-06T03:56:22.949Z,10.27
2018-08-06T03:58:52.281Z,11.07
2018-08-06T04:01:20.803Z,12.37
2018-08-06T04:03:49.642Z,13.43
2018-08-06T04:06:18.745Z,11.27
2018-08-06T04:08:47.251Z,12.60
2018-08-06T04:11:15.835Z,12.53
2018-08-06T04:13:45.016Z,12.27
2018-08-06T04:16:14.038Z,12.00
2018-08-06T04:18:42.545Z,11.80
2018-08-06T04:21:11.015Z,11.10
2018-08-06T04:23:39.511Z,11.00
2018-08-06T04:26:08.069Z,12.13
2018-08-06T04:28:36.282Z,10.47
2018-08-06T04:31:04.845Z,10.83
2018-08-06T04:33:33.492Z,13.03
2018-08-06T04:36:02.135Z,10.97
2018-08-06T04:38:30.603Z,12.70
2018-08-06T04:40:59.114Z,11.67
2018-08-06T04:43:27.676Z,11.90
2018-08-06T04:45:57.014Z,10.60
2018-08-06T04:48:25.495Z,12.20
2018-08-06T04:50:54.680Z,11.57
2018-08-06T04:53:23.231Z,11.40
2018-08-06T04:55:51.710Z,12.40
2018-08-06T04:58:20.198Z,12.33
2018-08-06T05:00:48.823Z,10.30
2018-08-06T05:03:17.514Z,11.90
2018-08-06T05:05:46.065Z,12.80
2018-08-06T05:08:14.532Z,11.87
2018-08-06T05:10:43.073Z,10.93
2018-08-06T05:13:11.535Z,12.00
2018-08-06T05:15:39.719Z,12.03
2018-08-06T05:18:08.326Z,12.87
2018-08-06T05:20:37.117Z,11.80
2018-08-06T05:23:05.682Z,13.40
2018-08-06T05:25:34.254Z,12.50
2018-08-06T05:28:02.885Z,13.47
2018-08-06T05:30:31.470Z,13.57
2018-08-06T05:33:00.003Z,12.03
2018-08-06T05:35:28.495Z,13.97
2018-08-06T05:37:57.331Z,13.60
2018-08-06T05:40:25.871Z,14.70
2018-08-06T05:42:54.607Z,13.93
2018-08-06T05:45:23.155Z,15.77
2018-08-06T05:47:51.662Z,14.93
2018-08-06T05:50:20.141Z,17.23
2018-08-06T05:52:48.624Z,15.00
2018-08-06T05:55:17.243Z,16.67
2018-08-06T05:57:45.761Z,15.80
2018-08-06T06:00:16.855Z,17.77
2018-08-06T06:02:45.944Z,17.17
2018-08-06T06:05:14.447Z,15.43
2018-08-06T06:07:43.071Z,15.73
2018-08-06T06:10:13.578Z,16.00
2018-08-06T06:12:42.125Z,16.90
2018-08-06T06:15:14.121Z,16.27
2018-08-06T06:17:43.434Z,15.70
2018-08-06T06:20:11.896Z,15.70
2018-08-06T06:22:40.441Z,15.57
2018-08-06T06:25:11.465Z,16.83
2018-08-06T06:27:40.047Z,15.90
2018-08-06T06:30:11.038Z,15.83
2018-08-06T06:32:39.754Z,16.00
2018-08-06T06:35:08.265Z,16.43
2018-08-06T06:37:37.046Z,14.80
2018-08-06T06:40:05.648Z,16.50
2018-08-06T06:42:34.211Z,16.33
2018-08-06T06:45:02.813Z,16.80
2018-08-06T06:47:31.374Z,16.37
2018-08-06T06:49:59.890Z,17.07
2018-08-06T06:52:28.478Z,17.83
2018-08-06T06:54:57.172Z,15.80
2018-08-06T06:57:25.691Z,17.53
2018-08-06T06:59:54.269Z,16.33
2018-08-06T07:02:22.743Z,17.37
2018-08-06T07:04:51.496Z,16.30
2018-08-06T07:07:19.996Z,18.90
2018-08-06T07:09:48.597Z,18.77
2018-08-06T07:12:17.183Z,16.50
2018-08-06T07:14:45.792Z,16.20
2018-08-06T07:17:14.350Z,17.70
2018-08-06T07:19:42.830Z,17.10
2018-08-06T07:22:11.320Z,15.60
2018-08-06T07:24:39.903Z,14.77
2018-08-06T07:27:08.467Z,15.77
2018-08-06T07:29:37.096Z,15.00
2018-08-06T07:32:05.862Z,15.60
2018-08-06T07:34:34.453Z,14.83
2018-08-06T07:37:03.148Z,15.90
2018-08-06T07:39:31.753Z,15.10
2018-08-06T07:42:00.341Z,16.40
2018-08-06T07:44:28.859Z,14.50
2018-08-06T07:46:57.379Z,16.90
2018-08-06T07:49:25.885Z,14.97
2018-08-06T07:51:54.596Z,16.33
2018-08-06T07:54:23.094Z,15.57
2018-08-06T07:56:51.606Z,16.13
2018-08-06T07:59:20.151Z,17.50
2018-08-06T08:01:48.727Z,14.93
2018-08-06T08:04:17.243Z,17.13
2018-08-06T08:06:45.812Z,17.00
2018-08-06T08:09:14.400Z,16.70
2018-08-06T08:11:42.986Z,16.27
2018-08-06T08:14:11.650Z,16.23
2018-08-06T08:16:39.811Z,14.23
2018-08-06T08:19:08.296Z,16.37
2018-08-06T08:21:36.866Z,15.20
2018-08-06T08:24:05.429Z,15.73
2018-08-06T08:26:34.012Z,15.17
2018-08-06T08:29:02.658Z,15.53
2018-08-06T08:31:30.873Z,15.10
2018-08-06T08:33:59.411Z,15.77
2018-08-06T08:36:27.984Z,15.47
2018-08-06T08:38:56.545Z,15.33
2018-08-06T08:41:25.221Z,15.03
2018-08-06T08:43:53.727Z,15.03
2018-08-06T08:46:22.227Z,15.00
2018-08-06T08:48:50.743Z,15.50
2018-08-06T08:51:18.952Z,14.33
2018-08-06T08:53:47.549Z,14.50
2018-08-06T08:56:16.145Z,14.27
2018-08-06T08:58:44.704Z,12.40
2018-08-06T09:01:13.317Z,12.30
2018-08-06T09:03:41.924Z,13.70
2018-08-06T09:06:10.519Z,14.83
2018-08-06T09:08:39.037Z,15.33
2018-08-06T09:11:07.239Z,15.63
2018-08-06T09:13:35.861Z,14.13
2018-08-06T09:16:04.439Z,16.33
2018-08-06T09:18:32.967Z,15.67
2018-08-06T09:21:01.469Z,16.90
2018-08-06T09:23:29.663Z,17.73
2018-08-06T09:25:58.168Z,15.20
2018-08-06T09:28:26.688Z,16.20
2018-08-06T09:30:55.732Z,15.63
2018-08-06T09:33:24.294Z,17.30
2018-08-06T09:35:53.026Z,14.83
2018-08-06T09:38:21.646Z,15.27
2018-08-06T09:40:50.330Z,17.10
2018-08-06T09:43:18.898Z,15.63
2018-08-06T09:45:47.459Z,14.77
2018-08-06T09:48:16.024Z,16.20
2018-08-06T09:50:44.519Z,17.40
2018-08-06T09:53:12.668Z,17.60
2018-08-06T09:55:41.228Z,17.93
2018-08-06T09:58:09.787Z,16.80
2018-08-06T10:00:40.194Z,18.10
2018-08-06T10:03:08.806Z,18.67
2018-08-06T10:05:37.492Z,17.87
2018-08-06T10:08:05.946Z,16.90
2018-08-06T10:10:34.546Z,17.83
2018-08-06T10:13:03.167Z,16.87
2018-08-06T10:15:31.409Z,16.07
2018-08-06T10:17:59.955Z,17.50
2018-08-06T10:20:28.442Z,15.40
2018-08-06T10:22:56.960Z,14.17
2018-08-06T10:25:25.534Z,15.90
2018-08-06T10:27:54.028Z,14.90
2018-08-06T10:30:23.493Z,15.83
2018-08-06T10:32:51.921Z,16.00
2018-08-06T10:35:20.984Z,13.80
2018-08-06T10:37:50.521Z,14.00
2018-08-06T10:40:21.469Z,13.60
2018-08-06T10:42:50.244Z,11.70
2018-08-06T10:45:19.944Z,11.03
2018-08-06T10:47:48.950Z,12.30
2018-08-06T10:50:17.590Z,12.17
2018-08-06T10:52:46.160Z,11.40
2018-08-06T10:55:15.224Z,13.60
2018-08-06T10:57:44.732Z,10.23
2018-08-06T11:00:16.261Z,12.07
2018-08-06T11:02:45.192Z,12.50
2018-08-06T11:05:14.757Z,10.07
2018-08-06T11:07:43.348Z,10.70
2018-08-06T11:10:14.627Z,10.07
2018-08-06T11:12:43.232Z,9.77
2018-08-06T11:15:14.262Z,9.73
2018-08-06T11:17:42.942Z,9.30
2018-08-06T11:20:14.895Z,9.90
2018-08-06T11:22:44.435Z,8.90
2018-08-06T11:25:18.036Z,9.30
2018-08-06T11:27:46.897Z,9.47
2018-08-06T11:30:18.268Z,9.03
2018-08-06T11:32:47.437Z,9.63
2018-08-06T11:35:16.433Z,9.20
2018-08-06T11:40:06.844Z,8.53
2018-08-06T11:42:35.790Z,8.07
2018-08-06T11:45:04.733Z,8.87
2018-08-06T11:47:33.333Z,10.10
2018-08-06T11:50:01.516Z,8.37
2018-08-06T11:52:30.133Z,8.67
2018-08-06T11:54:58.607Z,8.37
2018-08-06T11:57:27.201Z,9.80
2018-08-06T11:59:56.003Z,9.40
2018-08-06T12:02:24.615Z,9.23
2018-08-06T12:04:53.156Z,9.67
2018-08-06T12:07:21.742Z,8.67
2018-08-06T12:09:50.454Z,9.33
2018-08-06T12:12:19.363Z,10.30
2018-08-06T12:14:47.910Z,8.87
2018-08-06T12:17:16.082Z,9.40
2018-08-06T12:19:44.591Z,8.57
2018-08-06T12:22:13.109Z,8.50
2018-08-06T12:24:41.784Z,8.57
2018-08-06T12:27:10.292Z,7.80
2018-08-06T12:29:38.791Z,9.67
2018-08-06T12:32:07.454Z,8.53
2018-08-06T12:34:36.035Z,9.70
2018-08-06T12:37:04.717Z,9.90
2018-08-06T12:39:33.239Z,9.23
2018-08-06T12:42:01.851Z,8.17
2018-08-06T12:44:30.461Z,9.00
2018-08-06T12:46:58.738Z,9.33
2018-08-06T12:49:27.349Z,8.90
2018-08-06T12:51:55.928Z,8.70
2018-08-06T12:54:24.445Z,8.83
2018-08-06T12:56:53.007Z,8.90
2018-08-06T12:59:21.579Z,9.53
2018-08-06T13:01:50.101Z,9.00
2018-08-06T13:04:18.624Z,8.60
2018-08-06T13:06:47.192Z,8.90
2018-08-06T13:09:15.742Z,9.53
2018-08-06T13:11:44.230Z,8.33
2018-08-06T13:14:12.776Z,9.00
2018-08-06T13:16:41.301Z,9.40
2018-08-06T13:19:09.920Z,9.60
2018-08-06T13:21:39.495Z,8.70
2018-08-06T13:24:08.027Z,8.87
2018-08-06T13:26:36.654Z,9.60
2018-08-06T13:29:05.546Z,9.50
2018-08-06T13:31:34.164Z,9.47
2018-08-06T13:34:02.915Z,8.87
2018-08-06T13:36:31.487Z,9.27
2018-08-06T13:38:59.946Z,9.50
2018-08-06T13:41:28.477Z,9.70
2018-08-06T13:43:56.641Z,8.60
2018-08-06T13:46:25.176Z,9.27
2018-08-06T13:48:53.702Z,9.20
2018-08-06T13:51:22.737Z,9.50
2018-08-06T13:53:51.352Z,8.23
2018-08-06T13:56:19.937Z,8.63
2018-08-06T13:58:48.460Z,8.23
2018-08-06T14:01:16.990Z,7.97
2018-08-06T14:03:45.543Z,8.70
2018-08-06T14:06:14.042Z,8.33
2018-08-06T14:08:42.531Z,9.07
2018-08-06T14:11:10.802Z,9.23
2018-08-06T14:13:39.321Z,8.50
2018-08-06T14:16:07.853Z,8.90
2018-08-06T14:18:36.389Z,8.53
2018-08-06T14:21:05.051Z,8.77
2018-08-06T14:23:33.566Z,9.00
2018-08-06T14:26:01.795Z,8.00
2018-08-06T14:28:30.249Z,8.07
2018-08-06T14:30:58.815Z,8.47
2018-08-06T14:33:27.441Z,8.50
2018-08-06T14:35:55.965Z,8.90
2018-08-06T14:38:24.693Z,9.03
2018-08-06T14:40:53.765Z,9.47
2018-08-06T14:43:21.912Z,7.60
2018-08-06T14:45:50.391Z,9.13
2018-08-06T14:48:19.540Z,8.27
2018-08-06T14:50:48.018Z,8.53
2018-08-06T14:53:16.204Z,8.50
2018-08-06T14:55:44.675Z,8.40
2018-08-06T14:58:13.171Z,8.40
2018-08-06T15:00:41.363Z,9.17
2018-08-06T15:03:09.564Z,7.60
2018-08-06T15:05:38.071Z,8.70
2018-08-06T15:08:06.606Z,8.37
2018-08-06T15:10:35.167Z,8.10
2018-08-06T15:13:03.788Z,8.77
2018-08-06T15:15:31.961Z,8.30
2018-08-06T15:18:00.449Z,8.60
2018-08-06T15:20:28.669Z,8.30
2018-08-06T15:22:57.206Z,9.23
2018-08-06T15:25:25.994Z,8.67
2018-08-06T15:27:54.478Z,8.83
2018-08-06T15:30:23.114Z,8.47
2018-08-06T15:32:51.642Z,7.97
2018-08-06T15:35:20.285Z,8.00
2018-08-06T15:37:48.826Z,9.67
2018-08-06T15:40:18.958Z,8.37
2018-08-06T15:42:47.155Z,8.27
2018-08-06T15:45:15.541Z,7.93
2018-08-06T15:47:45.067Z,8.27
2018-08-06T15:50:15.708Z,7.70
2018-08-06T15:52:44.600Z,8.60
2018-08-06T15:55:13.257Z,8.37
2018-08-06T15:57:41.991Z,8.03
2018-08-06T16:00:13.587Z,7.83
2018-08-06T16:02:41.834Z,8.07
2018-08-06T16:05:10.897Z,8.40
2018-08-06T16:07:39.899Z,8.20
2018-08-06T16:10:10.073Z,7.07
2018-08-06T16:12:38.745Z,8.23
2018-08-06T16:15:09.416Z,7.60
2018-08-06T16:17:38.476Z,8.03
2018-08-06T16:20:09.126Z,7.40
2018-08-06T16:22:37.953Z,7.47
2018-08-06T16:25:07.915Z,7.43
2018-08-06T16:27:36.609Z,8.27
2018-08-06T16:30:12.116Z,7.50
2018-08-06T16:32:40.775Z,8.47
2018-08-06T16:35:09.316Z,7.40
2018-08-06T16:37:37.894Z,7.30
2018-08-06T16:40:07.205Z,7.70
2018-08-06T16:42:35.859Z,7.13
2018-08-06T16:45:05.054Z,7.73
2018-08-06T16:47:33.688Z,7.03
2018-08-06T16:50:02.280Z,7.37
2018-08-06T16:52:30.892Z,7.60
2018-08-06T16:54:59.130Z,7.23
2018-08-06T16:57:27.433Z,8.20
2018-08-06T16:59:56.030Z,7.73
2018-08-06T17:02:24.689Z,7.83
2018-08-06T17:04:53.396Z,7.90
2018-08-06T17:07:22.085Z,7.20
2018-08-06T17:09:50.966Z,7.40
2018-08-06T17:12:19.607Z,7.27
2018-08-06T17:14:48.105Z,6.67
2018-08-06T17:17:16.765Z,7.07
2018-08-06T17:19:45.327Z,7.10
2018-08-06T17:22:13.868Z,7.40
2018-08-06T17:24:42.503Z,6.70
2018-08-06T17:27:11.039Z,6.77
2018-08-06T17:29:39.730Z,6.90
2018-08-06T17:32:08.238Z,7.70
2018-08-06T17:34:37.166Z,7.40
2018-08-06T17:37:05.911Z,7.20
2018-08-06T17:39:36.157Z,7.30
2018-08-06T17:42:04.368Z,7.80
2018-08-06T17:44:32.949Z,7.70
2018-08-06T17:47:02.561Z,8.10
2018-08-06T17:49:31.174Z,7.00
2018-08-06T17:51:59.775Z,6.70
2018-08-06T17:54:28.315Z,8.00
2018-08-06T17:56:56.890Z,6.80
2018-08-06T17:59:25.421Z,6.20
2018-08-06T18:01:53.938Z,6.33
2018-08-06T18:04:22.474Z,7.27
2018-08-06T18:06:51.028Z,6.63
2018-08-06T18:09:19.608Z,7.43
2018-08-06T18:11:47.853Z,7.93
2018-08-06T18:14:16.416Z,6.97
2018-08-06T18:16:44.980Z,6.93
2018-08-06T18:19:13.705Z,7.70
2018-08-06T18:21:42.310Z,6.80
2018-08-06T18:24:10.819Z,5.63
2018-08-06T18:26:39.469Z,6.80
2018-08-06T18:29:08.021Z,6.67
2018-08-06T18:31:36.739Z,6.30
2018-08-06T18:34:05.548Z,5.90
2018-08-06T18:36:34.363Z,6.40
2018-08-06T18:39:03.339Z,6.70
2018-08-06T18:41:32.096Z,6.67
2018-08-06T18:44:00.677Z,6.50
2018-08-06T18:46:29.395Z,5.60
2018-08-06T18:48:58.014Z,6.63
2018-08-06T18:51:26.871Z,6.00
2018-08-06T18:53:55.429Z,6.63
2018-08-06T18:56:23.778Z,5.23
2018-08-06T18:58:53.227Z,6.00
2018-08-06T19:01:21.996Z,5.37
2018-08-06T19:03:50.734Z,6.53
2018-08-06T19:06:19.561Z,5.93
2018-08-06T19:08:48.283Z,6.47
2018-08-06T19:11:16.945Z,7.07
2018-08-06T19:13:50.924Z,7.27
2018-08-06T19:16:19.738Z,7.43
2018-08-06T19:18:53.742Z,8.27
2018-08-06T19:21:22.368Z,8.57
2018-08-06T19:23:55.207Z,10.53
2018-08-06T19:26:24.150Z,9.87
2018-08-06T19:28:53.396Z,9.23
2018-08-06T19:31:26.154Z,9.23
2018-08-06T19:33:55.709Z,8.63
2018-08-06T19:36:24.434Z,8.30
2018-08-06T19:38:52.973Z,8.90
2018-08-06T19:41:22.419Z,8.30
2018-08-06T19:43:51.108Z,8.40
2018-08-06T19:46:19.408Z,7.80
2018-08-06T19:48:49.227Z,7.20
2018-08-06T19:51:18.365Z,8.23
2018-08-06T19:53:47.431Z,7.00
2018-08-06T19:56:17.013Z,7.27
2018-08-06T19:58:45.935Z,6.70
2018-08-06T20:01:15.472Z,7.30
2018-08-06T20:03:44.327Z,7.40
2018-08-06T20:06:13.456Z,6.30
2018-08-06T20:08:42.227Z,6.37
2018-08-06T20:11:10.927Z,5.77
2018-08-06T20:13:39.647Z,5.33
2018-08-06T20:16:08.436Z,5.50
2018-08-06T20:18:37.143Z,5.60
2018-08-06T20:21:05.944Z,5.27
2018-08-06T20:23:34.650Z,4.90
2018-08-06T20:26:03.655Z,4.50
2018-08-06T20:28:32.797Z,5.03
2018-08-06T20:31:01.704Z,4.20
2018-08-06T20:33:30.604Z,4.40
2018-08-06T20:35:59.520Z,4.90
2018-08-06T20:38:27.883Z,4.57
2018-08-06T20:40:56.588Z,4.17
2018-08-06T20:43:25.159Z,3.73
2018-08-06T20:45:54.715Z,3.80
2018-08-06T20:48:23.131Z,4.30
2018-08-06T20:50:51.831Z,4.50
2018-08-06T20:53:20.443Z,4.20
2018-08-06T20:55:49.221Z,4.33
2018-08-06T20:58:17.812Z,4.30
2018-08-06T21:00:46.425Z,4.90
2018-08-06T21:03:15.353Z,4.27
2018-08-06T21:05:44.033Z,4.43
2018-08-06T21:08:12.346Z,4.30
2018-08-06T21:10:40.960Z,4.40
2018-08-06T21:13:09.541Z,4.00
2018-08-06T21:15:38.213Z,4.40
2018-08-06T21:18:06.879Z,5.20
2018-08-06T21:20:35.199Z,4.47
2018-08-06T21:23:03.905Z,4.43
2018-08-06T21:25:32.599Z,3.83
2018-08-06T21:28:01.281Z,3.97
2018-08-06T21:30:29.916Z,4.43
2018-08-06T21:32:58.548Z,4.57
2018-08-06T21:35:28.234Z,4.60
2018-08-06T21:37:57.462Z,4.03
2018-08-06T21:40:26.648Z,3.80
2018-08-06T21:42:55.353Z,3.40
2018-08-06T21:45:23.928Z,3.60
2018-08-06T21:47:52.136Z,4.10
2018-08-06T21:50:20.829Z,3.80
2018-08-06T21:52:49.380Z,4.17
2018-08-06T21:55:18.030Z,3.70
2018-08-06T21:57:46.580Z,3.90
2018-08-06T22:00:23.674Z,3.40
2018-08-06T22:02:52.442Z,3.03
2018-08-06T22:05:20.942Z,3.53
2018-08-06T22:07:49.476Z,3.77
2018-08-06T22:10:18.012Z,3.17
2018-08-06T22:12:46.600Z,3.70
2018-08-06T22:15:15.142Z,3.30
2018-08-06T22:17:43.628Z,3.53
2018-08-06T22:20:12.128Z,3.70
2018-08-06T22:22:40.672Z,3.80
2018-08-06T22:25:09.205Z,3.80
2018-08-06T22:27:37.741Z,3.60
2018-08-06T22:30:08.052Z,4.70
2018-08-06T22:32:36.598Z,4.20
2018-08-06T22:35:06.661Z,3.60
2018-08-06T22:37:35.471Z,4.00
2018-08-06T22:40:05.101Z,3.33
2018-08-06T22:42:33.580Z,4.10
2018-08-06T22:45:02.181Z,2.90
2018-08-06T22:47:37.166Z,3.30
2018-08-06T22:50:07.721Z,3.70
2018-08-06T22:52:36.490Z,3.43
2018-08-06T22:55:05.692Z,3.60
2018-08-06T22:57:34.290Z,3.57
2018-08-06T23:00:03.290Z,3.00
2018-08-06T23:02:32.487Z,3.30
2018-08-06T23:05:01.141Z,3.43
2018-08-06T23:07:29.342Z,3.10
2018-08-06T23:09:57.843Z,3.53
2018-08-06T23:12:26.350Z,3.43
2018-08-06T23:14:54.816Z,4.93
2018-08-06T23:17:23.358Z,4.93
2018-08-06T23:19:51.956Z,4.20
2018-08-06T23:22:20.236Z,3.53
2018-08-06T23:24:48.693Z,5.17
2018-08-06T23:27:17.127Z,3.60
2018-08-06T23:29:45.713Z,4.73
2018-08-06T23:32:14.302Z,4.63
2018-08-06T23:34:42.808Z,3.60
2018-08-06T23:37:11.331Z,3.50
2018-08-06T23:39:39.832Z,3.87
2018-08-06T23:42:08.354Z,4.03
2018-08-06T23:44:37.363Z,4.00
2018-08-06T23:47:05.893Z,3.00
2018-08-06T23:49:34.369Z,3.50
2018-08-06T23:52:02.893Z,2.87
2018-08-06T23:54:31.409Z,3.70
2018-08-06T23:56:59.989Z,3.83
2018-08-06T23:59:28.550Z,4.13
